createdAt,value
2018-06-08T00:00:48.409Z,99917.69
2018-06-08T00:03:53.420Z,99919.08
2018-06-08T00:06:59.466Z,99916.30
2018-06-08T00:10:03.292Z,99912.63
2018-06-08T00:13:06.637Z,99904.38
2018-06-08T00:16:09.985Z,99898.95
2018-06-08T00:19:14.921Z,99915.67
2018-06-08T00:22:18.368Z,99897.91
2018-06-08T00:25:23.566Z,99901.77
2018-06-08T00:28:29.500Z,99904.09
2018-06-08T00:31:32.573Z,99906.67
2018-06-08T00:34:35.477Z,99898.41
2018-06-08T00:37:38.432Z,99900.03
2018-06-08T00:40:41.671Z,99899.66
2018-06-08T00:43:44.620Z,99894.16
2018-06-08T00:46:47.532Z,99896.08
2018-06-08T00:49:50.460Z,99890.86
2018-06-08T00:52:53.435Z,99889.73
2018-06-08T00:55:56.433Z,99886.66
2018-06-08T00:58:59.344Z,99882.03
2018-06-08T01:02:02.323Z,99890.28
2018-06-08T01:05:05.349Z,99890.91
2018-06-08T01:08:08.344Z,99897.44
2018-06-08T01:11:11.324Z,99891.91
2018-06-08T01:14:14.250Z,99887.70
2018-06-08T01:17:17.212Z,99884.46
2018-06-08T01:20:20.106Z,99889.22
2018-06-08T01:23:23.039Z,99882.05
2018-06-08T01:26:25.978Z,99883.16
2018-06-08T01:29:28.898Z,99885.13
2018-06-08T01:32:31.791Z,99881.66
2018-06-08T01:35:34.713Z,99881.09
2018-06-08T01:38:37.673Z,99882.58
2018-06-08T01:41:40.619Z,99857.27
2018-06-08T01:44:43.573Z,99876.91
2018-06-08T01:47:46.497Z,99880.61
2018-06-08T01:50:49.438Z,99880.33
2018-06-08T01:53:52.338Z,99880.23
2018-06-08T01:56:55.252Z,99877.73
2018-06-08T01:59:58.149Z,99878.03
2018-06-08T02:03:01.097Z,99878.70
2018-06-08T02:06:04.110Z,99878.66
2018-06-08T02:09:07.614Z,99880.69
2018-06-08T02:12:10.552Z,99876.44
2018-06-08T02:15:13.486Z,99881.22
2018-06-08T02:18:16.370Z,99887.20
2018-06-08T02:21:19.290Z,99879.80
2018-06-08T02:24:22.204Z,99882.50
2018-06-08T02:27:25.153Z,99874.75
2018-06-08T02:30:28.053Z,99866.83
2018-06-08T02:33:30.957Z,99874.63
2018-06-08T02:36:33.846Z,99872.02
2018-06-08T02:39:36.780Z,99866.73
2018-06-08T02:42:39.685Z,99872.39
2018-06-08T02:45:42.658Z,99866.91
2018-06-08T02:48:45.585Z,99872.67
2018-06-08T02:51:48.547Z,99869.97
2018-06-08T02:54:51.501Z,99873.56
2018-06-08T02:57:54.429Z,99871.53
2018-06-08T03:00:57.334Z,99871.94
2018-06-08T03:04:00.280Z,99870.01
2018-06-08T03:07:03.222Z,99868.30
2018-06-08T03:10:06.173Z,99870.50
2018-06-08T03:13:09.084Z,99861.84
2018-06-08T03:16:12.012Z,99858.19
2018-06-08T03:19:14.894Z,99859.53
2018-06-08T03:22:17.809Z,99857.09
2018-06-08T03:25:20.757Z,99859.83
2018-06-08T03:28:23.701Z,99863.59
2018-06-08T03:31:26.639Z,99856.71
2018-06-08T03:34:29.581Z,99861.92
2018-06-08T03:37:32.526Z,99862.63
2018-06-08T03:40:35.442Z,99866.28
2018-06-08T03:43:38.380Z,99867.19
2018-06-08T03:46:41.302Z,99862.73
2018-06-08T03:49:44.226Z,99863.93
2018-06-08T03:52:47.141Z,99866.47
2018-06-08T03:55:50.060Z,99861.08
2018-06-08T03:58:52.962Z,99866.41
2018-06-08T04:01:55.912Z,99861.42
2018-06-08T04:04:59.130Z,99863.26
2018-06-08T04:08:02.555Z,99864.88
2018-06-08T04:11:06.301Z,99871.58
2018-06-08T04:14:10.479Z,99871.17
2018-06-08T04:17:14.153Z,99876.53
2018-06-08T04:20:17.353Z,99877.12
2018-06-08T04:23:20.818Z,99873.14
2018-06-08T04:26:23.722Z,99873.84
2018-06-08T04:29:26.635Z,99870.06
2018-06-08T04:32:29.701Z,99875.56
2018-06-08T04:35:32.632Z,99872.77
2018-06-08T04:38:35.801Z,99873.84
2018-06-08T04:41:39.221Z,99877.53
2018-06-08T04:44:43.572Z,99874.86
2018-06-08T04:47:47.082Z,99880.30
2018-06-08T04:50:51.733Z,99868.13
2018-06-08T04:53:54.666Z,99870.64
2018-06-08T04:56:57.689Z,99879.98
2018-06-08T05:00:00.799Z,99882.68
2018-06-08T05:03:03.748Z,99881.34
2018-06-08T05:06:06.690Z,99883.66
2018-06-08T05:09:10.607Z,99890.02
2018-06-08T05:12:13.538Z,99887.80
2018-06-08T05:15:16.457Z,99891.44
2018-06-08T05:18:19.397Z,99892.13
2018-06-08T05:21:22.657Z,99895.71
2018-06-08T05:24:25.573Z,99890.08
2018-06-08T05:27:28.484Z,99888.27
2018-06-08T05:30:31.444Z,99894.91
2018-06-08T05:33:34.376Z,99896.83
2018-06-08T05:36:37.804Z,99895.86
2018-06-08T05:39:40.744Z,99902.84
2018-06-08T05:42:43.653Z,99898.56
2018-06-08T05:45:46.542Z,99900.58
2018-06-08T05:48:49.467Z,99899.73
2018-06-08T05:51:52.409Z,99905.30
2018-06-08T05:54:55.340Z,99894.64
2018-06-08T05:57:58.282Z,99900.55
2018-06-08T06:01:01.436Z,99903.64
2018-06-08T06:04:04.322Z,99903.38
2018-06-08T06:07:07.191Z,99905.94
2018-06-08T06:10:10.802Z,99905.86
2018-06-08T06:13:13.732Z,99913.09
2018-06-08T06:16:16.712Z,99913.47
2018-06-08T06:19:19.696Z,99910.80
2018-06-08T06:22:22.657Z,99910.56
2018-06-08T06:25:25.618Z,99917.91
2018-06-08T06:28:28.545Z,99924.09
2018-06-08T06:31:31.452Z,99933.20
2018-06-08T06:34:34.356Z,99932.84
2018-06-08T06:37:37.279Z,99928.31
2018-06-08T06:40:40.218Z,99923.05
2018-06-08T06:43:43.224Z,99927.18
2018-06-08T06:46:46.165Z,99932.69
2018-06-08T06:49:49.085Z,99926.83
2018-06-08T06:52:52.058Z,99927.43
2018-06-08T06:55:54.966Z,99931.38
2018-06-08T06:58:57.849Z,99935.06
2018-06-08T07:02:00.767Z,99937.88
2018-06-08T07:05:03.791Z,99936.74
2018-06-08T07:08:07.044Z,99941.43
2018-06-08T07:11:09.978Z,99938.13
2018-06-08T07:14:12.925Z,99935.17
2018-06-08T07:17:15.840Z,99930.48
2018-06-08T07:20:18.799Z,99923.39
2018-06-08T07:23:21.747Z,99919.94
2018-06-08T07:26:25.597Z,99925.61
2018-06-08T07:29:28.504Z,99927.56
2018-06-08T07:32:31.429Z,99924.71
2018-06-08T07:35:34.379Z,99923.49
2018-06-08T07:38:37.309Z,99918.32
2018-06-08T07:41:40.288Z,99919.41
2018-06-08T07:44:43.213Z,99925.25
2018-06-08T07:47:46.148Z,99931.70
2018-06-08T07:50:49.095Z,99927.70
2018-06-08T07:53:52.129Z,99936.51
2018-06-08T07:56:55.063Z,99947.95
2018-06-08T07:59:57.986Z,99945.80
2018-06-08T08:03:00.890Z,99944.48
2018-06-08T08:06:03.937Z,99939.82
2018-06-08T08:09:09.225Z,99946.19
2018-06-08T08:12:12.125Z,99945.05
2018-06-08T08:15:15.041Z,99944.09
2018-06-08T08:18:17.980Z,99949.70
2018-06-08T08:21:21.096Z,99957.02
2018-06-08T08:24:24.002Z,99969.86
2018-06-08T08:27:26.898Z,99975.95
2018-06-08T08:30:29.826Z,99975.30
2018-06-08T08:33:32.720Z,99970.06
2018-06-08T08:36:35.671Z,99959.85
2018-06-08T08:39:38.580Z,99969.13
2018-06-08T08:42:41.500Z,99969.94
2018-06-08T08:45:44.408Z,99980.23
2018-06-08T08:48:47.294Z,99986.86
2018-06-08T08:51:50.250Z,99996.20
2018-06-08T08:54:53.148Z,99996.02
2018-06-08T08:57:56.072Z,100001.62
2018-06-08T09:00:58.969Z,99998.61
2018-06-08T09:04:01.903Z,99998.75
2018-06-08T09:07:04.857Z,99999.61
2018-06-08T09:10:07.807Z,99991.34
2018-06-08T09:13:10.712Z,99988.00
2018-06-08T09:16:13.673Z,99995.44
2018-06-08T09:19:16.588Z,99999.63
2018-06-08T09:22:19.488Z,99999.38
2018-06-08T09:25:22.385Z,99994.71
2018-06-08T09:28:26.075Z,99992.25
2018-06-08T09:31:28.983Z,99992.28
2018-06-08T09:34:31.936Z,99985.54
2018-06-08T09:37:34.833Z,99985.02
2018-06-08T09:40:37.773Z,99993.84
2018-06-08T09:43:40.701Z,99999.45
2018-06-08T09:46:43.599Z,99996.75
2018-06-08T09:49:46.520Z,100003.37
2018-06-08T09:52:49.436Z,100007.44
2018-06-08T09:55:52.360Z,100005.36
2018-06-08T09:58:55.303Z,100005.95
2018-06-08T10:01:58.209Z,100017.84
2018-06-08T10:05:02.319Z,100029.84
2018-06-08T10:08:06.972Z,100031.09
2018-06-08T10:11:10.597Z,100027.59
2018-06-08T10:14:13.901Z,100020.23
2018-06-08T10:17:16.929Z,100022.31
2018-06-08T10:20:20.205Z,100011.80
2018-06-08T10:23:23.257Z,100005.71
2018-06-08T10:26:26.465Z,100004.45
2018-06-08T10:29:29.637Z,100012.39
2018-06-08T10:32:32.597Z,100010.83
2018-06-08T10:35:36.266Z,100004.02
2018-06-08T10:38:39.762Z,100005.15
2018-06-08T10:41:44.494Z,100012.04
2018-06-08T10:44:47.839Z,100004.15
2018-06-08T10:47:51.352Z,100011.94
2018-06-08T10:50:54.455Z,100013.16
2018-06-08T10:53:58.293Z,100019.41
2018-06-08T10:57:01.273Z,100018.13
2018-06-08T11:00:04.845Z,100018.83
2018-06-08T11:03:08.532Z,100025.27
2018-06-08T11:06:12.105Z,100017.70
2018-06-08T11:09:15.437Z,100016.90
2018-06-08T11:12:18.546Z,100016.46
2018-06-08T11:15:22.396Z,100009.49
2018-06-08T11:18:25.615Z,100010.59
2018-06-08T11:21:28.757Z,100007.88
2018-06-08T11:24:31.741Z,100001.73
2018-06-08T11:27:34.637Z,99994.99
2018-06-08T11:30:37.590Z,99990.95
2018-06-08T11:33:41.448Z,99993.05
2018-06-08T11:36:44.948Z,99979.77
2018-06-08T11:39:47.884Z,99983.96
2018-06-08T11:42:51.198Z,99977.42
2018-06-08T11:45:54.772Z,99977.07
2018-06-08T11:48:57.658Z,99971.66
2018-06-08T11:52:00.954Z,99969.47
2018-06-08T11:55:04.704Z,99965.92
2018-06-08T11:58:08.630Z,99967.30
2018-06-08T12:01:11.776Z,99963.73
2018-06-08T12:04:15.344Z,99958.58
2018-06-08T12:07:19.193Z,99953.48
2018-06-08T12:10:22.725Z,99950.28
2018-06-08T12:13:26.037Z,99948.68
2018-06-08T12:16:29.941Z,99941.72
2018-06-08T12:19:34.093Z,99938.33
2018-06-08T12:22:37.016Z,99925.27
2018-06-08T12:25:40.274Z,99924.72
2018-06-08T12:28:44.586Z,99920.26
2018-06-08T12:31:47.679Z,99916.45
2018-06-08T12:34:50.610Z,99920.88
2018-06-08T12:37:54.433Z,99919.27
2018-06-08T12:40:58.307Z,99917.59
2018-06-08T12:44:01.490Z,99914.31
2018-06-08T12:47:05.112Z,99914.95
2018-06-08T12:50:08.378Z,99919.97
2018-06-08T12:53:11.274Z,99920.75
2018-06-08T12:56:15.042Z,99916.47
2018-06-08T12:59:18.158Z,99924.51
2018-06-08T13:02:21.470Z,99925.68
2018-06-08T13:05:24.846Z,99930.48
2018-06-08T13:08:28.475Z,99924.44
2018-06-08T13:11:32.902Z,99921.06
2018-06-08T13:14:35.832Z,99905.77
2018-06-08T13:17:39.584Z,99922.08
2018-06-08T13:20:42.949Z,99925.17
2018-06-08T13:23:45.879Z,99916.39
2018-06-08T13:26:49.283Z,99910.06
2018-06-08T13:29:52.368Z,99908.38
2018-06-08T13:32:55.412Z,99907.56
2018-06-08T13:35:59.355Z,99910.16
2018-06-08T13:39:04.497Z,99902.64
2018-06-08T13:42:08.299Z,99888.80
2018-06-08T13:45:11.702Z,99881.27
2018-06-08T13:48:14.573Z,99880.84
2018-06-08T13:51:17.961Z,99883.12
2018-06-08T13:54:21.488Z,99885.20
2018-06-08T13:57:25.605Z,99891.97
2018-06-08T14:00:29.453Z,99893.53
2018-06-08T14:03:32.587Z,99900.30
2018-06-08T14:06:37.961Z,99898.70
2018-06-08T14:09:41.485Z,99893.48
2018-06-08T14:12:45.349Z,99898.59
2018-06-08T14:15:50.301Z,99890.84
2018-06-08T14:18:54.030Z,99872.96
2018-06-08T14:21:57.673Z,99870.95
2018-06-08T14:25:01.428Z,99862.74
2018-06-08T14:28:04.577Z,99863.57
2018-06-08T14:31:07.861Z,99859.27
2018-06-08T14:34:10.837Z,99855.80
2018-06-08T14:37:14.763Z,99861.53
2018-06-08T14:40:18.562Z,99858.23
2018-06-08T14:43:21.503Z,99863.36
2018-06-08T14:46:25.280Z,99860.34
2018-06-08T14:49:28.854Z,99863.55
2018-06-08T14:52:32.540Z,99871.55
2018-06-08T14:55:36.844Z,99867.33
2018-06-08T14:58:39.790Z,99869.29
2018-06-08T15:01:43.182Z,99865.22
2018-06-08T15:04:46.106Z,99859.00
2018-06-08T15:07:49.098Z,99847.95
2018-06-08T15:10:52.033Z,99842.86
2018-06-08T15:13:54.910Z,99848.11
2018-06-08T15:16:58.553Z,99853.27
2018-06-08T15:20:01.482Z,99848.56
2018-06-08T15:23:05.008Z,99854.97
2018-06-08T15:26:07.931Z,99854.47
2018-06-08T15:29:10.948Z,99839.28
2018-06-08T15:32:13.898Z,99837.11
2018-06-08T15:35:16.832Z,99833.89
2018-06-08T15:38:20.117Z,99831.61
2018-06-08T15:41:23.014Z,99831.39
2018-06-08T15:44:25.974Z,99833.94
2018-06-08T15:47:29.125Z,99832.03
2018-06-08T15:50:32.091Z,99817.07
2018-06-08T15:53:35.476Z,99830.27
2018-06-08T15:56:38.399Z,99825.97
2018-06-08T15:59:41.393Z,99833.26
2018-06-08T16:02:44.332Z,99830.39
2018-06-08T16:05:47.221Z,99826.58
2018-06-08T16:08:50.109Z,99811.06
2018-06-08T16:11:56.066Z,99819.33
2018-06-08T16:14:59.219Z,99813.75
2018-06-08T16:18:02.117Z,99815.03
2018-06-08T16:21:05.361Z,99819.55
2018-06-08T16:24:08.265Z,99818.03
2018-06-08T16:27:11.177Z,99814.38
2018-06-08T16:30:14.089Z,99816.03
2018-06-08T16:33:17.009Z,99816.58
2018-06-08T16:36:19.992Z,99810.35
2018-06-08T16:39:22.821Z,99809.63
2018-06-08T16:42:25.681Z,99805.69
2018-06-08T16:45:28.594Z,99809.40
2018-06-08T16:48:31.474Z,99814.81
2018-06-08T16:51:34.743Z,99818.00
2018-06-08T16:54:37.660Z,99816.00
2018-06-08T16:57:40.580Z,99818.39
2018-06-08T17:00:44.349Z,99809.59
2018-06-08T17:03:47.326Z,99806.77
2018-06-08T17:06:50.583Z,99802.21
2018-06-08T17:09:53.465Z,99807.20
2018-06-08T17:12:56.406Z,99809.78
2018-06-08T17:15:59.324Z,99811.55
2018-06-08T17:19:02.229Z,99814.69
2018-06-08T17:22:05.185Z,99811.42
2018-06-08T17:25:08.112Z,99816.84
2018-06-08T17:28:11.003Z,99823.42
2018-06-08T17:31:14.348Z,99831.11
2018-06-08T17:34:18.418Z,99828.65
2018-06-08T17:37:21.667Z,99826.35
2018-06-08T17:40:25.849Z,99830.12
2018-06-08T17:43:29.440Z,99836.37
2018-06-08T17:46:32.774Z,99833.50
2018-06-08T17:49:37.241Z,99833.45
2018-06-08T17:52:40.350Z,99833.50
2018-06-08T17:55:43.909Z,99844.83
2018-06-08T17:58:47.579Z,99841.67
2018-06-08T18:01:50.784Z,99842.74
2018-06-08T18:04:54.434Z,99844.48
2018-06-08T18:07:58.613Z,99844.75
2018-06-08T18:11:02.502Z,99844.88
2018-06-08T18:14:06.128Z,99842.53
2018-06-08T18:17:09.269Z,99841.68
2018-06-08T18:20:12.231Z,99850.52
2018-06-08T18:23:15.465Z,99849.45
2018-06-08T18:26:18.523Z,99848.22
2018-06-08T18:29:21.717Z,99843.94
2018-06-08T18:32:25.056Z,99842.47
2018-06-08T18:35:28.216Z,99844.59
2018-06-08T18:38:31.821Z,99844.88
2018-06-08T18:41:35.453Z,99847.84
2018-06-08T18:44:39.251Z,99848.61
2018-06-08T18:47:42.254Z,99846.77
2018-06-08T18:50:46.620Z,99847.75
2018-06-08T18:53:50.006Z,99847.50
2018-06-08T18:56:52.989Z,99840.16
2018-06-08T18:59:56.069Z,99842.58
2018-06-08T19:02:59.577Z,99840.40
2018-06-08T19:06:02.905Z,99833.63
2018-06-08T19:09:08.997Z,99831.53
2018-06-08T19:12:12.665Z,99829.56
2018-06-08T19:15:15.612Z,99828.83
2018-06-08T19:18:18.873Z,99830.30
2018-06-08T19:21:22.509Z,99833.50
2018-06-08T19:24:25.923Z,99824.30
2018-06-08T19:27:29.265Z,99826.27
2018-06-08T19:30:32.537Z,99829.11
2018-06-08T19:33:35.716Z,99825.69
2018-06-08T19:36:45.354Z,99831.73
2018-06-08T19:39:48.322Z,99836.44
2018-06-08T19:42:51.463Z,99834.84
2018-06-08T19:45:54.879Z,99835.73
2018-06-08T19:48:58.368Z,99833.02
2018-06-08T19:52:01.292Z,99835.64
2018-06-08T19:55:04.223Z,99844.01
2018-06-08T19:58:07.246Z,99856.44
2018-06-08T20:01:10.169Z,99855.95
2018-06-08T20:04:13.242Z,99862.96
2018-06-08T20:07:16.168Z,99862.96
2018-06-08T20:10:19.066Z,99865.79
2018-06-08T20:13:21.986Z,99870.50
2018-06-08T20:16:24.893Z,99880.47
2018-06-08T20:19:27.777Z,99874.43
2018-06-08T20:22:31.200Z,99881.69
2018-06-08T20:25:34.448Z,99885.63
2018-06-08T20:28:37.781Z,99886.87
2018-06-08T20:31:40.723Z,99881.95
2018-06-08T20:34:43.618Z,99881.24
2018-06-08T20:37:46.836Z,99884.93
2018-06-08T20:40:50.288Z,99887.64
2018-06-08T20:43:53.181Z,99886.03
2018-06-08T20:46:56.076Z,99885.81
2018-06-08T20:49:59.014Z,99887.86
2018-06-08T20:53:01.976Z,99878.87
2018-06-08T20:56:04.961Z,99874.83
2018-06-08T20:59:07.885Z,99881.68
2018-06-08T21:02:10.893Z,99880.33
2018-06-08T21:05:13.732Z,99883.61
2018-06-08T21:08:16.614Z,99887.05
2018-06-08T21:11:19.549Z,99887.14
2018-06-08T21:14:22.448Z,99889.72
2018-06-08T21:17:25.373Z,99891.28
2018-06-08T21:20:28.344Z,99889.45
2018-06-08T21:23:31.380Z,99888.48
2018-06-08T21:26:34.351Z,99892.38
2018-06-08T21:29:37.230Z,99891.41
2018-06-08T21:32:40.110Z,99898.62
2018-06-08T21:35:43.531Z,99891.50
2018-06-08T21:38:46.777Z,99891.37
2018-06-08T21:41:49.695Z,99891.58
2018-06-08T21:44:52.725Z,99888.30
2018-06-08T21:47:55.847Z,99883.48
2018-06-08T21:50:58.765Z,99890.61
2018-06-08T21:54:01.685Z,99889.28
2018-06-08T21:57:04.717Z,99885.08
2018-06-08T22:00:07.780Z,99886.27
2018-06-08T22:03:10.807Z,99889.86
2018-06-08T22:06:13.778Z,99891.23
2018-06-08T22:09:18.072Z,99890.72
2018-06-08T22:12:21.046Z,99888.30
2018-06-08T22:15:23.973Z,99877.20
2018-06-08T22:18:26.866Z,99879.33
2018-06-08T22:21:29.810Z,99875.77
2018-06-08T22:24:32.765Z,99873.91
2018-06-08T22:27:35.692Z,99865.69
2018-06-08T22:30:38.609Z,99862.27
2018-06-08T22:33:41.551Z,99850.84
2018-06-08T22:36:44.480Z,99865.08
2018-06-08T22:39:47.378Z,99871.23
2018-06-08T22:42:50.277Z,99861.03
2018-06-08T22:45:53.185Z,99847.53
2018-06-08T22:48:56.071Z,99850.98
2018-06-08T22:51:59.001Z,99851.34
2018-06-08T22:55:01.945Z,99855.02
2018-06-08T22:58:04.899Z,99849.59
2018-06-08T23:01:07.869Z,99844.42
2018-06-08T23:04:10.821Z,99849.22
2018-06-08T23:07:13.756Z,99853.27
2018-06-08T23:10:16.672Z,99851.16
2018-06-08T23:13:19.678Z,99854.87
2018-06-08T23:16:22.826Z,99856.83
2018-06-08T23:19:26.094Z,99857.07
2018-06-08T23:22:29.369Z,99856.45
2018-06-08T23:25:32.540Z,99851.08
2018-06-08T23:28:35.455Z,99844.20
2018-06-08T23:31:38.417Z,99834.77
2018-06-08T23:34:41.359Z,99836.22
2018-06-08T23:37:44.773Z,99824.07
2018-06-08T23:40:47.676Z,99827.61
2018-06-08T23:43:50.711Z,99831.77
2018-06-08T23:46:53.582Z,99832.36
2018-06-08T23:49:56.861Z,99829.64
2018-06-08T23:52:59.804Z,99831.71
2018-06-08T23:56:02.747Z,99838.44
2018-06-08T23:59:05.723Z,99835.50
